createdAt,value
2023-03-20T00:02:18.428Z,2.52
2023-03-20T00:04:47.002Z,2.42
2023-03-20T00:07:15.202Z,2.32
2023-03-20T00:09:43.697Z,2.30
2023-03-20T00:12:16.310Z,2.32
2023-03-20T00:14:44.183Z,2.30
2023-03-20T00:17:20.656Z,2.20
2023-03-20T00:19:48.866Z,2.16
2023-03-20T00:22:16.682Z,2.16
2023-03-20T00:24:46.082Z,2.16
2023-03-20T00:27:15.871Z,2.11
2023-03-20T00:29:44.686Z,2.06
2023-03-20T00:32:13.614Z,2.05
2023-03-20T00:34:41.943Z,2.01
2023-03-20T00:37:11.955Z,1.96
2023-03-20T00:39:41.270Z,1.97
2023-03-20T00:42:19.503Z,1.93
2023-03-20T00:44:58.327Z,1.92
2023-03-20T00:47:27.217Z,1.87
2023-03-20T00:49:56.389Z,1.86
2023-03-20T00:52:24.985Z,1.81
2023-03-20T00:54:53.310Z,1.76
2023-03-20T00:57:34.910Z,1.77
2023-03-20T01:00:20.696Z,1.74
2023-03-20T01:02:49.661Z,1.71
2023-03-20T01:05:18.061Z,1.68
2023-03-20T01:07:46.631Z,1.64
2023-03-20T01:10:15.218Z,1.61
2023-03-20T01:12:44.052Z,1.58
2023-03-20T01:15:35.696Z,1.55
2023-03-20T01:18:04.172Z,1.50
2023-03-20T01:20:32.642Z,1.47
2023-03-20T01:23:00.454Z,1.40
2023-03-20T01:25:28.980Z,1.38
2023-03-20T01:27:58.500Z,1.31
2023-03-20T01:30:33.001Z,1.31
2023-03-20T01:33:02.013Z,1.25
2023-03-20T01:35:31.372Z,1.23
2023-03-20T01:38:13.879Z,1.27
2023-03-20T01:41:06.312Z,1.21
2023-03-20T01:43:37.113Z,1.22
2023-03-20T01:46:11.708Z,1.33
2023-03-20T01:48:55.725Z,1.37
2023-03-20T01:51:33.372Z,1.34
2023-03-20T01:54:09.995Z,1.32
2023-03-20T01:57:12.326Z,1.30
2023-03-20T01:59:54.350Z,1.23
2023-03-20T02:02:27.229Z,1.20
2023-03-20T02:04:59.924Z,1.12
2023-03-20T02:07:28.385Z,1.12
2023-03-20T02:10:07.048Z,1.07
2023-03-20T02:12:48.709Z,1.07
2023-03-20T02:15:27.824Z,1.01
2023-03-20T02:18:14.198Z,1.00
2023-03-20T02:20:53.803Z,0.99
2023-03-20T02:23:54.068Z,1.04
2023-03-20T02:26:54.450Z,1.03
2023-03-20T02:29:59.996Z,1.03
2023-03-20T02:33:05.407Z,1.01
2023-03-20T02:35:49.673Z,0.94
2023-03-20T02:38:30.181Z,0.95
2023-03-20T02:41:32.951Z,0.95
2023-03-20T02:44:09.012Z,0.95
2023-03-20T02:46:43.549Z,0.92
2023-03-20T02:49:53.747Z,0.88
2023-03-20T02:52:37.006Z,0.85
2023-03-20T02:55:20.581Z,0.81
2023-03-20T02:58:11.022Z,0.69
2023-03-20T03:00:42.674Z,0.69
2023-03-20T03:03:19.899Z,0.66
2023-03-20T03:05:53.541Z,0.66
2023-03-20T03:08:24.458Z,0.64
2023-03-20T03:11:02.773Z,0.62
2023-03-20T03:13:33.333Z,0.61
2023-03-20T03:16:07.825Z,0.58
2023-03-20T03:18:37.956Z,0.57
2023-03-20T03:21:08.274Z,0.56
2023-03-20T03:23:44.833Z,0.55
2023-03-20T03:26:17.621Z,0.55
2023-03-20T03:28:52.940Z,0.55
2023-03-20T03:31:22.449Z,0.47
2023-03-20T03:33:53.356Z,0.42
2023-03-20T03:36:28.023Z,0.44
2023-03-20T03:39:16.003Z,0.41
2023-03-20T03:41:47.872Z,0.39
2023-03-20T03:44:17.814Z,0.39
2023-03-20T03:46:50.469Z,0.39
2023-03-20T03:49:28.667Z,0.35
2023-03-20T03:51:59.438Z,0.35
2023-03-20T03:54:35.835Z,0.36
2023-03-20T03:57:42.836Z,0.30
2023-03-20T04:00:18.389Z,0.33
2023-03-20T04:02:48.468Z,0.35
2023-03-20T04:05:17.684Z,0.33
2023-03-20T04:07:49.337Z,0.25
2023-03-20T04:10:18.926Z,0.22
2023-03-20T04:12:46.706Z,0.19
2023-03-20T04:15:16.369Z,0.21
2023-03-20T04:17:45.067Z,0.20
2023-03-20T04:20:14.990Z,0.19
2023-03-20T04:22:42.951Z,0.18
2023-03-20T04:25:24.119Z,0.18
2023-03-20T04:27:54.049Z,0.18
2023-03-20T04:30:44.114Z,0.21
2023-03-20T04:33:44.080Z,0.15
2023-03-20T04:36:30.554Z,0.12
2023-03-20T04:38:58.620Z,0.13
2023-03-20T04:41:27.207Z,0.07
2023-03-20T04:43:57.874Z,0.09
2023-03-20T04:46:26.068Z,0.04
2023-03-20T04:48:54.068Z,0.07
2023-03-20T04:51:22.081Z,0.10
2023-03-20T04:53:51.989Z,0.10
2023-03-20T04:56:20.031Z,0.15
2023-03-20T04:58:49.902Z,0.15
2023-03-20T05:01:21.125Z,0.16
2023-03-20T05:03:49.134Z,0.21
2023-03-20T05:06:17.789Z,0.25
2023-03-20T05:08:46.380Z,0.32
2023-03-20T05:11:14.932Z,0.39
2023-03-20T05:14:16.358Z,0.44
2023-03-20T05:16:50.468Z,0.55
2023-03-20T05:19:33.259Z,0.62
2023-03-20T05:22:39.512Z,0.72
2023-03-20T05:25:23.173Z,0.85
2023-03-20T05:28:10.300Z,1.08
2023-03-20T05:30:56.582Z,1.30
2023-03-20T05:33:47.764Z,1.50
2023-03-20T05:36:34.162Z,1.67
2023-03-20T05:39:21.052Z,1.85
2023-03-20T05:42:05.215Z,2.06
2023-03-20T05:44:51.926Z,2.32
2023-03-20T05:47:43.673Z,2.52
2023-03-20T05:50:30.321Z,2.75
2023-03-20T05:53:16.682Z,2.95
2023-03-20T05:55:57.028Z,3.12
2023-03-20T05:58:43.396Z,3.43
2023-03-20T06:01:30.842Z,3.60
2023-03-20T06:04:16.745Z,3.88
2023-03-20T06:07:00.675Z,4.20
2023-03-20T06:09:30.275Z,4.56
2023-03-20T06:12:02.318Z,5.00
2023-03-20T06:14:30.180Z,5.51
2023-03-20T06:17:03.496Z,6.00
2023-03-20T06:19:31.282Z,6.36
2023-03-20T06:21:59.523Z,6.62
2023-03-20T06:24:27.334Z,6.96
2023-03-20T06:26:56.264Z,7.30
2023-03-20T06:29:25.056Z,7.76
2023-03-20T06:31:56.564Z,7.93
2023-03-20T06:34:30.401Z,8.33
2023-03-20T06:36:58.738Z,8.59
2023-03-20T06:39:28.787Z,8.98
2023-03-20T06:41:58.042Z,9.16
2023-03-20T06:44:27.354Z,9.25
2023-03-20T06:47:11.864Z,9.27
2023-03-20T06:49:39.709Z,9.36
2023-03-20T06:52:15.136Z,9.53
2023-03-20T06:54:44.468Z,9.67
2023-03-20T06:57:15.092Z,9.81
2023-03-20T06:59:44.364Z,10.04
2023-03-20T07:02:13.066Z,10.24
2023-03-20T07:04:41.764Z,10.25
2023-03-20T07:07:10.562Z,10.22
2023-03-20T07:09:38.910Z,10.15
2023-03-20T07:12:14.565Z,10.11
2023-03-20T07:14:43.405Z,10.08
2023-03-20T07:17:16.601Z,10.11
2023-03-20T07:19:45.280Z,10.30
2023-03-20T07:22:23.109Z,10.41
2023-03-20T07:24:52.441Z,10.59
2023-03-20T07:27:23.409Z,10.74
2023-03-20T07:29:54.867Z,10.93
2023-03-20T07:32:24.612Z,11.01
2023-03-20T07:34:53.346Z,11.06
2023-03-20T07:37:22.326Z,11.33
2023-03-20T07:40:04.456Z,11.64
2023-03-20T07:42:48.714Z,11.74
2023-03-20T07:45:36.580Z,11.84
2023-03-20T07:48:07.012Z,11.84
2023-03-20T07:50:35.187Z,12.08
2023-03-20T07:53:03.892Z,12.31
2023-03-20T07:55:31.436Z,12.23
2023-03-20T07:57:59.711Z,12.29
2023-03-20T08:00:28.483Z,12.22
2023-03-20T08:02:57.331Z,12.39
2023-03-20T08:05:26.403Z,12.59
2023-03-20T08:07:55.253Z,12.78
2023-03-20T08:10:23.368Z,12.87
2023-03-20T08:12:51.522Z,13.01
2023-03-20T08:15:19.277Z,13.17
2023-03-20T08:17:48.052Z,13.24
2023-03-20T08:20:16.689Z,13.38
2023-03-20T08:22:45.777Z,13.63
2023-03-20T08:25:13.657Z,13.72
2023-03-20T08:27:42.355Z,13.88
2023-03-20T08:30:12.028Z,13.97
2023-03-20T08:32:40.598Z,13.98
2023-03-20T08:35:16.328Z,14.09
2023-03-20T08:37:50.894Z,14.14
2023-03-20T08:40:18.951Z,14.15
2023-03-20T08:42:46.967Z,14.21
2023-03-20T08:45:14.748Z,14.25
2023-03-20T08:47:43.596Z,14.25
2023-03-20T08:50:12.386Z,14.27
2023-03-20T08:52:44.643Z,14.41
2023-03-20T08:55:12.916Z,14.60
2023-03-20T08:57:41.990Z,14.74
2023-03-20T09:00:12.660Z,14.88
2023-03-20T09:02:42.632Z,14.93
2023-03-20T09:05:11.695Z,14.82
2023-03-20T09:07:39.965Z,15.03
2023-03-20T09:10:08.474Z,15.03
2023-03-20T09:12:37.257Z,14.98
2023-03-20T09:15:06.980Z,14.92
2023-03-20T09:17:35.352Z,15.05
2023-03-20T09:20:03.127Z,15.28
2023-03-20T09:22:31.384Z,15.38
2023-03-20T09:24:59.328Z,15.36
2023-03-20T09:27:27.444Z,15.36
2023-03-20T09:29:56.069Z,15.29
2023-03-20T09:32:24.689Z,15.23
2023-03-20T09:34:52.498Z,15.17
2023-03-20T09:37:21.100Z,15.08
2023-03-20T09:39:49.036Z,15.00
2023-03-20T09:42:36.112Z,15.25
2023-03-20T09:45:07.044Z,15.52
2023-03-20T09:47:51.786Z,15.68
2023-03-20T09:50:29.722Z,15.87
2023-03-20T09:53:47.608Z,15.80
2023-03-20T09:56:20.243Z,15.52
2023-03-20T09:58:54.866Z,15.57
2023-03-20T10:01:26.493Z,15.41
2023-03-20T10:03:58.239Z,15.32
2023-03-20T10:06:27.247Z,15.49
2023-03-20T10:08:55.767Z,15.63
2023-03-20T10:11:36.956Z,15.78
2023-03-20T10:14:19.461Z,15.86
2023-03-20T10:17:00.019Z,15.96
2023-03-20T10:19:31.573Z,16.14
2023-03-20T10:22:15.025Z,16.20
2023-03-20T10:24:50.607Z,15.93
2023-03-20T10:27:33.027Z,15.49
2023-03-20T10:30:39.269Z,15.32
2023-03-20T10:33:30.633Z,15.01
2023-03-20T10:36:02.113Z,14.92
2023-03-20T10:38:53.632Z,14.97
2023-03-20T10:41:25.934Z,15.25
2023-03-20T10:43:53.693Z,15.29
2023-03-20T10:46:32.211Z,15.06
2023-03-20T10:49:19.142Z,14.60
2023-03-20T10:51:50.401Z,14.52
2023-03-20T10:54:27.095Z,14.36
2023-03-20T10:56:57.729Z,14.26
2023-03-20T10:59:49.778Z,14.26
2023-03-20T11:02:20.659Z,14.19
2023-03-20T11:04:49.432Z,14.25
2023-03-20T11:07:27.853Z,14.28
2023-03-20T11:10:12.146Z,14.39
2023-03-20T11:12:46.036Z,14.42
2023-03-20T11:15:24.269Z,14.56
2023-03-20T11:18:07.232Z,14.57
2023-03-20T11:20:38.392Z,14.60
2023-03-20T11:23:11.496Z,14.62
2023-03-20T11:25:47.269Z,14.74
2023-03-20T11:28:35.676Z,14.81
2023-03-20T11:31:41.804Z,14.93
2023-03-20T11:34:18.090Z,15.09
2023-03-20T11:37:10.263Z,15.32
2023-03-20T11:39:40.329Z,15.42
2023-03-20T11:42:24.267Z,15.26
2023-03-20T11:45:01.281Z,15.09
2023-03-20T11:47:33.924Z,15.06
2023-03-20T11:50:05.390Z,14.95
2023-03-20T11:52:38.351Z,15.02
2023-03-20T11:55:24.699Z,15.13
2023-03-20T11:57:57.482Z,15.20
2023-03-20T12:00:47.642Z,15.15
2023-03-20T12:03:45.718Z,15.01
2023-03-20T12:06:18.141Z,15.01
2023-03-20T12:08:51.713Z,14.69
2023-03-20T12:11:30.136Z,14.62
2023-03-20T12:14:00.782Z,14.59
2023-03-20T12:16:31.006Z,14.59
2023-03-20T12:19:02.287Z,14.48
2023-03-20T12:21:36.740Z,14.53
2023-03-20T12:24:11.184Z,14.47
2023-03-20T12:26:51.881Z,14.34
2023-03-20T12:29:42.973Z,14.30
2023-03-20T12:32:29.323Z,14.30
2023-03-20T12:35:03.236Z,14.41
2023-03-20T12:37:32.670Z,14.48
2023-03-20T12:40:02.242Z,14.53
2023-03-20T12:42:39.010Z,14.62
2023-03-20T12:45:16.313Z,14.72
2023-03-20T12:48:03.817Z,14.72
2023-03-20T12:50:51.440Z,14.82
2023-03-20T12:53:32.224Z,14.73
2023-03-20T12:56:19.075Z,14.76
2023-03-20T12:58:53.954Z,14.66
2023-03-20T13:01:43.284Z,14.57
2023-03-20T13:04:44.327Z,14.54
2023-03-20T13:07:18.060Z,14.46
2023-03-20T13:09:54.443Z,14.38
2023-03-20T13:12:43.638Z,14.41
2023-03-20T13:15:23.583Z,14.49
2023-03-20T13:18:10.438Z,14.56
2023-03-20T13:20:52.300Z,14.54
2023-03-20T13:23:41.419Z,14.52
2023-03-20T13:26:30.005Z,14.51
2023-03-20T13:29:09.277Z,14.45
2023-03-20T13:31:51.946Z,14.36
2023-03-20T13:34:41.650Z,14.27
2023-03-20T13:37:22.998Z,14.25
2023-03-20T13:39:54.889Z,14.21
2023-03-20T13:42:24.995Z,14.28
2023-03-20T13:45:19.440Z,14.20
2023-03-20T13:47:48.256Z,14.13
2023-03-20T13:51:02.994Z,14.22
2023-03-20T13:53:57.575Z,14.14
2023-03-20T13:56:49.647Z,14.04
2023-03-20T13:59:42.789Z,13.95
2023-03-20T14:02:18.541Z,13.92
2023-03-20T14:04:50.123Z,13.82
2023-03-20T14:07:35.425Z,13.82
2023-03-20T14:10:22.509Z,13.75
2023-03-20T14:13:00.472Z,13.80
2023-03-20T14:15:34.053Z,13.79
2023-03-20T14:18:14.729Z,13.61
2023-03-20T14:20:44.184Z,13.50
2023-03-20T14:23:20.928Z,13.44
2023-03-20T14:25:49.399Z,13.29
2023-03-20T14:28:21.195Z,13.16
2023-03-20T14:30:51.699Z,13.07
2023-03-20T14:33:22.969Z,12.86
2023-03-20T14:35:52.644Z,12.67
2023-03-20T14:38:30.607Z,12.52
2023-03-20T14:41:27.421Z,12.32
2023-03-20T14:44:13.414Z,12.22
2023-03-20T14:47:19.377Z,12.15
2023-03-20T14:50:20.809Z,11.99
2023-03-20T14:53:02.902Z,11.96
2023-03-20T14:55:34.598Z,11.91
2023-03-20T14:58:05.180Z,11.80
2023-03-20T15:00:46.068Z,11.70
2023-03-20T15:03:17.967Z,11.67
2023-03-20T15:05:47.315Z,11.66
2023-03-20T15:08:23.808Z,11.56
2023-03-20T15:10:55.362Z,11.54
2023-03-20T15:13:25.029Z,11.57
2023-03-20T15:16:05.219Z,11.57
2023-03-20T15:18:38.932Z,11.53
2023-03-20T15:21:15.613Z,11.45
2023-03-20T15:23:45.746Z,11.57
2023-03-20T15:30:30.791Z,11.32
2023-03-20T15:32:59.738Z,11.52
2023-03-20T15:36:15.081Z,11.46
2023-03-20T15:47:11.102Z,11.25
2023-03-20T15:49:41.420Z,11.21
2023-03-20T15:52:22.137Z,11.16
2023-03-20T15:54:50.690Z,11.10
2023-03-20T15:57:26.371Z,10.98
2023-03-20T15:59:54.971Z,10.94
2023-03-20T16:02:22.899Z,10.84
2023-03-20T16:04:54.440Z,10.79
2023-03-20T16:07:32.956Z,10.76
2023-03-20T16:10:01.666Z,10.71
2023-03-20T16:12:29.722Z,10.69
2023-03-20T16:14:58.771Z,10.64
2023-03-20T16:17:26.856Z,10.67
2023-03-20T16:19:55.117Z,10.57
2023-03-20T16:22:26.907Z,10.54
2023-03-20T16:24:58.166Z,10.45
2023-03-20T16:27:27.325Z,10.41
2023-03-20T16:29:57.175Z,10.38
2023-03-20T16:32:35.440Z,10.32
2023-03-20T16:35:08.340Z,10.31
2023-03-20T16:37:44.671Z,10.22
2023-03-20T16:40:38.548Z,10.19
2023-03-20T16:43:19.433Z,10.07
2023-03-20T16:45:53.339Z,10.00
2023-03-20T16:48:42.534Z,9.97
2023-03-20T16:51:31.006Z,9.95
2023-03-20T16:54:01.516Z,9.85
2023-03-20T16:56:33.284Z,9.76
2023-03-20T16:59:10.884Z,9.78
2023-03-20T17:01:45.192Z,9.65
2023-03-20T17:04:16.078Z,9.60
2023-03-20T17:06:47.537Z,9.64
2023-03-20T17:09:23.026Z,9.60
2023-03-20T17:11:58.759Z,9.59
2023-03-20T17:14:27.397Z,9.55
2023-03-20T17:16:58.782Z,9.50
2023-03-20T17:19:26.668Z,9.43
2023-03-20T17:21:55.464Z,9.28
2023-03-20T17:24:23.577Z,9.22
2023-03-20T17:26:58.514Z,9.20
2023-03-20T17:29:26.352Z,9.20
2023-03-20T17:31:54.851Z,9.15
2023-03-20T17:34:22.865Z,9.07
2023-03-20T17:36:50.948Z,9.00
2023-03-20T17:39:20.243Z,8.97
2023-03-20T17:41:48.772Z,8.92
2023-03-20T17:44:16.615Z,8.84
2023-03-20T17:46:57.339Z,8.81
2023-03-20T17:49:27.937Z,8.72
2023-03-20T17:51:56.800Z,8.71
2023-03-20T17:54:24.978Z,8.69
2023-03-20T17:56:53.605Z,8.69
2023-03-20T17:59:21.365Z,8.59
2023-03-20T18:01:49.885Z,8.49
2023-03-20T18:04:17.866Z,8.46
2023-03-20T18:06:47.870Z,8.43
2023-03-20T18:09:17.093Z,8.39
2023-03-20T18:11:45.677Z,8.35
2023-03-20T18:14:18.290Z,8.31
2023-03-20T18:16:46.995Z,8.27
2023-03-20T18:19:28.593Z,8.25
2023-03-20T18:21:58.418Z,8.22
2023-03-20T18:24:27.472Z,8.22
2023-03-20T18:26:57.517Z,8.18
2023-03-20T18:29:26.188Z,8.14
2023-03-20T18:31:54.635Z,8.14
2023-03-20T18:34:22.462Z,8.16
2023-03-20T18:36:51.297Z,8.15
2023-03-20T18:39:21.758Z,8.12
2023-03-20T18:41:50.290Z,8.08
2023-03-20T18:44:18.157Z,8.08
2023-03-20T18:46:46.825Z,8.07
2023-03-20T18:49:16.777Z,8.05
2023-03-20T18:51:46.176Z,8.06
2023-03-20T18:54:14.771Z,8.06
2023-03-20T18:56:43.670Z,8.08
2023-03-20T18:59:13.347Z,8.10
2023-03-20T19:01:42.113Z,8.11
2023-03-20T19:04:10.503Z,8.13
2023-03-20T19:06:39.112Z,8.19
2023-03-20T19:09:07.794Z,8.25
2023-03-20T19:11:38.237Z,8.32
2023-03-20T19:14:06.546Z,8.26
2023-03-20T19:16:38.452Z,8.25
2023-03-20T19:19:07.948Z,8.26
2023-03-20T19:21:36.598Z,8.21
2023-03-20T19:24:06.471Z,8.19
2023-03-20T19:26:37.208Z,8.19
2023-03-20T19:29:10.840Z,8.19
2023-03-20T19:31:39.282Z,8.08
2023-03-20T19:34:07.795Z,8.13
2023-03-20T19:36:38.315Z,8.10
2023-03-20T19:39:08.845Z,8.07
2023-03-20T19:41:37.588Z,8.07
2023-03-20T19:44:06.613Z,8.10
2023-03-20T19:46:40.637Z,8.11
2023-03-20T19:49:30.233Z,8.15
2023-03-20T19:51:59.194Z,8.15
2023-03-20T19:54:28.780Z,8.17
2023-03-20T19:56:57.858Z,8.17
2023-03-20T19:59:26.141Z,8.20
2023-03-20T20:01:55.143Z,8.23
2023-03-20T20:04:22.960Z,8.25
2023-03-20T20:06:55.324Z,8.30
2023-03-20T20:09:25.244Z,8.27
2023-03-20T20:11:53.878Z,8.31
2023-03-20T20:14:23.762Z,8.37
2023-03-20T20:16:56.055Z,8.44
2023-03-20T20:19:24.752Z,8.48
2023-03-20T20:24:41.648Z,8.55
2023-03-20T20:27:17.655Z,8.51
2023-03-20T20:29:49.509Z,8.57
2023-03-20T20:32:19.423Z,8.61
2023-03-20T20:40:30.959Z,8.55
2023-03-20T20:43:01.626Z,8.54
2023-03-20T20:45:31.773Z,8.56
2023-03-20T20:48:01.003Z,8.62
2023-03-20T20:50:30.423Z,8.59
2023-03-20T20:52:59.005Z,8.60
2023-03-20T20:55:27.628Z,8.63
2023-03-20T20:57:56.450Z,8.56
2023-03-20T21:00:41.314Z,8.60
2023-03-20T21:03:15.294Z,8.55
2023-03-20T21:05:43.952Z,8.57
2023-03-20T21:08:16.811Z,8.61
2023-03-20T21:10:46.321Z,8.59
2023-03-20T21:13:15.957Z,8.58
2023-03-20T21:15:45.946Z,8.61
2023-03-20T21:18:15.129Z,8.49
2023-03-20T21:20:43.497Z,8.57
2023-03-20T21:23:12.247Z,8.57
2023-03-20T21:25:42.571Z,8.60
2023-03-20T21:28:12.710Z,8.61
2023-03-20T21:30:56.472Z,8.64
2023-03-20T21:33:36.014Z,8.62
2023-03-20T21:36:04.419Z,8.52
2023-03-20T21:41:21.280Z,8.49
2023-03-20T21:43:50.062Z,8.49
2023-03-20T21:49:55.475Z,8.47
2023-03-20T21:58:22.794Z,8.45
2023-03-20T22:01:14.479Z,8.43
2023-03-20T22:03:26.050Z,8.37
2023-03-20T22:15:16.383Z,8.32
2023-03-20T22:32:33.403Z,8.13
2023-03-20T22:35:05.031Z,8.14
2023-03-20T22:43:50.912Z,8.05
2023-03-20T22:46:07.822Z,7.98
2023-03-20T22:48:40.856Z,7.93
2023-03-20T22:51:09.616Z,7.90
2023-03-20T22:53:37.439Z,7.91
2023-03-20T22:56:07.107Z,7.94
2023-03-20T22:58:34.824Z,7.89
2023-03-20T23:01:03.385Z,7.88
2023-03-20T23:03:41.495Z,7.80
2023-03-20T23:06:25.587Z,7.79
2023-03-20T23:08:58.357Z,7.73
2023-03-20T23:11:29.049Z,7.69
2023-03-20T23:13:57.624Z,7.71
2023-03-20T23:16:26.994Z,7.74
2023-03-20T23:18:55.704Z,7.73
2023-03-20T23:21:28.751Z,7.71
2023-03-20T23:24:02.178Z,7.70
2023-03-20T23:26:30.332Z,7.66
2023-03-20T23:28:58.328Z,7.62
2023-03-20T23:31:27.366Z,7.65
2023-03-20T23:33:56.841Z,7.66
2023-03-20T23:36:42.468Z,7.63
2023-03-20T23:39:11.920Z,7.64
2023-03-20T23:44:28.490Z,7.64
2023-03-20T23:46:56.889Z,7.70
2023-03-20T23:49:25.127Z,7.66
2023-03-20T23:51:53.322Z,7.63
2023-03-20T23:54:21.218Z,7.63
2023-03-20T23:56:49.465Z,7.58
2023-03-20T23:59:24.279Z,7.63
